createdAt,value
2023-05-08T00:01:57.618Z,17.20
2023-05-08T00:04:00.695Z,20.58
2023-05-08T00:06:05.489Z,18.13
2023-05-08T00:08:08.736Z,17.30
2023-05-08T00:10:12.670Z,16.30
2023-05-08T00:12:16.097Z,17.75
2023-05-08T00:14:19.064Z,18.23
2023-05-08T00:16:23.523Z,16.55
2023-05-08T00:18:26.680Z,19.67
2023-05-08T00:20:29.639Z,16.83
2023-05-08T00:22:32.737Z,17.35
2023-05-08T00:24:35.763Z,16.75
2023-05-08T00:26:38.910Z,17.23
2023-05-08T00:28:41.953Z,17.42
2023-05-08T00:30:45.014Z,16.92
2023-05-08T00:32:49.477Z,14.98
2023-05-08T00:34:54.397Z,15.10
2023-05-08T00:36:57.966Z,15.93
2023-05-08T00:39:01.164Z,22.15
2023-05-08T00:41:04.917Z,16.25
2023-05-08T00:43:08.768Z,16.92
2023-05-08T00:45:12.750Z,20.60
2023-05-08T00:47:16.203Z,16.80
2023-05-08T00:49:20.938Z,16.38
2023-05-08T00:51:24.359Z,15.68
2023-05-08T00:53:27.749Z,17.80
2023-05-08T00:55:31.219Z,14.88
2023-05-08T00:57:35.750Z,14.63
2023-05-08T00:59:41.469Z,16.58
2023-05-08T01:01:45.199Z,15.52
2023-05-08T01:03:48.497Z,15.30
2023-05-08T01:05:52.864Z,15.57
2023-05-08T01:07:55.767Z,13.82
2023-05-08T01:09:59.124Z,15.60
2023-05-08T01:12:09.071Z,15.87
2023-05-08T01:14:14.624Z,14.50
2023-05-08T01:16:18.914Z,13.80
2023-05-08T01:18:27.823Z,16.27
2023-05-08T01:20:43.968Z,15.90
2023-05-08T01:23:07.804Z,13.82
2023-05-08T01:25:36.598Z,14.93
2023-05-08T01:27:57.808Z,14.32
2023-05-08T01:30:23.002Z,17.13
2023-05-08T01:36:11.577Z,14.30
2023-05-08T01:38:22.410Z,14.70
2023-05-08T01:40:34.586Z,16.17
2023-05-08T01:42:46.392Z,14.80
2023-05-08T01:44:57.629Z,14.20
2023-05-08T01:47:01.421Z,15.68
2023-05-08T01:49:08.343Z,15.32
2023-05-08T01:51:18.427Z,15.18
2023-05-08T01:53:26.001Z,16.42
2023-05-08T01:55:32.869Z,18.17
2023-05-08T01:57:38.636Z,17.27
2023-05-08T01:59:43.304Z,17.17
2023-05-08T02:01:48.175Z,20.38
2023-05-08T02:03:52.008Z,21.25
2023-05-08T02:05:56.932Z,18.90
2023-05-08T02:08:02.124Z,18.33
2023-05-08T02:10:06.384Z,22.02
2023-05-08T02:12:09.875Z,19.02
2023-05-08T02:14:14.414Z,18.40
2023-05-08T02:16:18.282Z,28.50
2023-05-08T02:18:22.275Z,20.27
2023-05-08T02:20:25.318Z,19.80
2023-05-08T02:22:29.522Z,17.80
2023-05-08T02:24:35.834Z,19.98
2023-05-08T02:26:39.518Z,19.40
2023-05-08T02:28:42.688Z,17.85
2023-05-08T02:30:46.215Z,17.00
2023-05-08T02:32:50.621Z,19.10
2023-05-08T02:35:02.471Z,17.20
2023-05-08T02:37:06.689Z,15.35
2023-05-08T02:39:13.033Z,19.73
2023-05-08T02:41:19.066Z,15.10
2023-05-08T02:43:22.145Z,15.80
2023-05-08T02:45:27.853Z,14.32
2023-05-08T02:47:35.820Z,15.45
2023-05-08T02:49:44.868Z,19.58
2023-05-08T02:51:51.339Z,20.20
2023-05-08T02:53:57.541Z,18.20
2023-05-08T02:56:06.682Z,15.05
2023-05-08T02:58:15.074Z,17.45
2023-05-08T03:00:22.547Z,18.48
2023-05-08T03:02:30.956Z,16.55
2023-05-08T03:04:37.860Z,19.17
2023-05-08T03:06:44.255Z,18.80
2023-05-08T03:08:48.577Z,14.88
2023-05-08T03:10:53.761Z,16.52
2023-05-08T03:12:57.262Z,20.45
2023-05-08T03:15:05.922Z,18.00
2023-05-08T03:17:10.078Z,16.95
2023-05-08T03:19:17.167Z,16.80
2023-05-08T03:21:22.164Z,16.27
2023-05-08T03:23:26.224Z,16.30
2023-05-08T03:25:31.081Z,16.17
2023-05-08T03:27:34.437Z,16.17
2023-05-08T03:29:37.976Z,21.08
2023-05-08T03:31:42.726Z,19.55
2023-05-08T03:33:46.366Z,16.45
2023-05-08T03:35:49.512Z,16.95
2023-05-08T03:37:54.247Z,18.23
2023-05-08T03:39:58.209Z,17.48
2023-05-08T03:42:01.293Z,14.57
2023-05-08T03:44:05.790Z,15.70
2023-05-08T03:46:09.481Z,18.02
2023-05-08T03:48:15.427Z,16.20
2023-05-08T03:50:19.328Z,15.48
2023-05-08T03:52:22.266Z,15.80
2023-05-08T03:54:25.698Z,14.50
2023-05-08T03:56:29.360Z,16.58
2023-05-08T03:58:38.170Z,16.20
2023-05-08T04:00:48.811Z,17.27
2023-05-08T04:02:57.838Z,16.75
2023-05-08T04:05:08.137Z,27.13
2023-05-08T04:07:13.835Z,17.70
2023-05-08T04:09:26.199Z,16.63
2023-05-08T04:11:33.090Z,16.58
2023-05-08T04:13:41.569Z,16.92
2023-05-08T04:15:49.929Z,16.95
2023-05-08T04:17:55.634Z,19.17
2023-05-08T04:20:04.355Z,21.33
2023-05-08T04:22:08.718Z,17.42
2023-05-08T04:24:14.470Z,16.85
2023-05-08T04:26:18.598Z,19.10
2023-05-08T04:28:23.889Z,20.23
2023-05-08T04:30:27.406Z,20.63
2023-05-08T04:32:31.440Z,17.10
2023-05-08T04:34:35.177Z,18.00
2023-05-08T04:36:40.707Z,19.23
2023-05-08T04:38:45.711Z,23.17
2023-05-08T04:40:49.302Z,21.73
2023-05-08T04:42:52.573Z,17.98
2023-05-08T04:44:56.335Z,16.33
2023-05-08T04:46:59.452Z,17.17
2023-05-08T04:49:02.733Z,17.87
2023-05-08T04:51:07.026Z,19.37
2023-05-08T04:53:11.539Z,17.42
2023-05-08T04:55:15.018Z,21.15
2023-05-08T04:57:18.046Z,15.63
2023-05-08T04:59:21.224Z,16.52
2023-05-08T05:01:24.261Z,17.13
2023-05-08T05:03:27.694Z,22.60
2023-05-08T05:05:31.517Z,16.23
2023-05-08T05:07:35.150Z,17.77
2023-05-08T05:09:41.747Z,16.13
2023-05-08T05:11:45.594Z,16.67
2023-05-08T05:13:48.805Z,21.20
2023-05-08T05:15:54.523Z,16.30
2023-05-08T05:17:59.717Z,17.30
2023-05-08T05:20:03.102Z,18.48
2023-05-08T05:22:06.260Z,16.25
2023-05-08T05:24:11.451Z,16.65
2023-05-08T05:26:17.238Z,15.10
2023-05-08T05:28:21.205Z,16.00
2023-05-08T05:30:24.978Z,15.48
2023-05-08T05:32:27.970Z,15.75
2023-05-08T05:34:31.250Z,14.07
2023-05-08T05:36:34.989Z,18.52
2023-05-08T05:38:38.314Z,14.80
2023-05-08T05:40:42.613Z,16.23
2023-05-08T05:42:51.631Z,18.42
2023-05-08T05:44:59.155Z,16.67
2023-05-08T05:47:04.462Z,19.23
2023-05-08T05:49:09.308Z,16.15
2023-05-08T05:51:13.706Z,21.63
2023-05-08T05:53:18.030Z,13.60
2023-05-08T05:55:22.562Z,14.00
2023-05-08T05:57:26.091Z,14.57
2023-05-08T05:59:32.891Z,21.48
2023-05-08T06:01:36.652Z,14.88
2023-05-08T06:03:43.995Z,15.10
2023-05-08T06:05:49.107Z,13.57
2023-05-08T06:07:53.400Z,13.15
2023-05-08T06:10:01.754Z,18.90
2023-05-08T06:12:05.601Z,15.50
2023-05-08T06:14:09.838Z,13.73
2023-05-08T06:16:17.579Z,12.82
2023-05-08T06:18:23.295Z,13.20
2023-05-08T06:20:28.964Z,13.07
2023-05-08T06:22:31.939Z,14.05
2023-05-08T06:24:35.612Z,22.40
2023-05-08T06:26:39.126Z,14.43
2023-05-08T06:28:42.388Z,14.60
2023-05-08T06:30:49.641Z,13.63
2023-05-08T06:32:55.880Z,14.32
2023-05-08T06:35:02.628Z,14.13
2023-05-08T06:37:10.969Z,17.13
2023-05-08T06:39:15.196Z,15.27
2023-05-08T06:41:22.054Z,11.95
2023-05-08T06:43:25.279Z,13.07
2023-05-08T06:45:28.653Z,13.50
2023-05-08T06:47:34.560Z,10.68
2023-05-08T06:49:40.206Z,12.15
2023-05-08T06:51:43.704Z,14.90
2023-05-08T06:53:50.745Z,12.40
2023-05-08T06:55:54.518Z,13.50
2023-05-08T06:57:57.487Z,13.13
2023-05-08T07:00:00.861Z,12.80
2023-05-08T07:02:04.144Z,11.07
2023-05-08T07:04:07.766Z,9.57
2023-05-08T07:06:12.064Z,13.77
2023-05-08T07:08:15.287Z,11.80
2023-05-08T07:10:23.417Z,10.85
2023-05-08T07:12:29.501Z,14.00
2023-05-08T07:14:33.336Z,11.65
2023-05-08T07:16:37.797Z,17.70
2023-05-08T07:18:40.796Z,11.65
2023-05-08T07:20:46.075Z,10.32
2023-05-08T07:22:50.404Z,11.02
2023-05-08T07:24:55.362Z,14.20
2023-05-08T07:26:59.650Z,13.55
2023-05-08T07:29:02.697Z,15.82
2023-05-08T07:31:07.407Z,12.65
2023-05-08T07:33:10.490Z,8.75
2023-05-08T07:35:13.996Z,9.45
2023-05-08T07:37:17.484Z,11.70
2023-05-08T07:39:22.653Z,9.95
2023-05-08T07:41:28.205Z,6.90
2023-05-08T07:43:31.450Z,15.18
2023-05-08T07:45:35.082Z,6.93
2023-05-08T07:47:40.187Z,6.35
2023-05-08T07:49:44.806Z,6.88
2023-05-08T07:51:49.105Z,5.60
2023-05-08T07:53:52.683Z,7.63
2023-05-08T07:55:57.382Z,7.00
2023-05-08T07:58:00.587Z,9.00
2023-05-08T08:00:03.791Z,11.15
2023-05-08T08:02:16.762Z,7.90
2023-05-08T08:04:20.004Z,8.75
2023-05-08T08:06:23.292Z,9.32
2023-05-08T08:08:26.761Z,9.75
2023-05-08T08:10:29.886Z,6.45
2023-05-08T08:12:34.476Z,11.90
2023-05-08T08:14:37.462Z,5.28
2023-05-08T08:16:40.761Z,8.00
2023-05-08T08:18:43.713Z,6.30
2023-05-08T08:20:47.197Z,6.70
2023-05-08T08:22:50.162Z,7.15
2023-05-08T08:24:55.274Z,5.65
2023-05-08T08:26:58.788Z,5.35
2023-05-08T08:29:03.313Z,4.80
2023-05-08T08:31:06.310Z,3.42
2023-05-08T08:33:09.453Z,7.80
2023-05-08T08:35:14.954Z,7.93
2023-05-08T08:37:23.547Z,3.80
2023-05-08T08:39:28.425Z,6.03
2023-05-08T08:41:34.455Z,7.28
2023-05-08T08:43:44.026Z,9.65
2023-05-08T08:45:50.199Z,11.68
2023-05-08T08:47:56.202Z,15.02
2023-05-08T08:50:04.168Z,11.65
2023-05-08T08:52:12.285Z,10.27
2023-05-08T08:54:22.788Z,17.67
2023-05-08T08:56:28.268Z,10.18
2023-05-08T08:58:38.071Z,9.73
2023-05-08T09:00:42.631Z,7.00
2023-05-08T09:02:47.045Z,6.15
2023-05-08T09:04:51.480Z,7.45
2023-05-08T09:06:54.973Z,5.78
2023-05-08T09:08:58.224Z,6.53
2023-05-08T09:11:03.701Z,7.60
2023-05-08T09:13:06.965Z,7.78
2023-05-08T09:15:11.499Z,6.60
2023-05-08T09:17:14.557Z,6.57
2023-05-08T09:19:25.627Z,4.43
2023-05-08T09:21:31.549Z,4.57
2023-05-08T09:23:37.278Z,7.72
2023-05-08T09:25:44.616Z,6.30
2023-05-08T09:27:52.447Z,6.65
2023-05-08T09:30:03.254Z,5.68
2023-05-08T09:32:06.740Z,7.45
2023-05-08T09:34:10.441Z,12.07
2023-05-08T09:36:28.620Z,4.15
2023-05-08T09:38:44.687Z,5.80
2023-05-08T09:40:48.385Z,5.72
2023-05-08T09:42:52.628Z,7.60
2023-05-08T09:44:57.443Z,8.52
2023-05-08T09:47:16.187Z,5.57
2023-05-08T09:49:21.025Z,6.43
2023-05-08T09:51:25.443Z,12.43
2023-05-08T09:53:39.683Z,8.73
2023-05-08T09:55:48.947Z,3.50
2023-05-08T09:57:56.657Z,3.92
2023-05-08T10:00:08.785Z,4.70
2023-05-08T10:02:16.388Z,4.22
2023-05-08T10:04:33.442Z,6.00
2023-05-08T10:06:37.523Z,7.18
2023-05-08T10:08:42.882Z,8.38
2023-05-08T10:10:45.988Z,4.70
2023-05-08T10:12:48.990Z,5.28
2023-05-08T10:14:52.219Z,5.45
2023-05-08T10:16:56.096Z,13.18
2023-05-08T10:19:02.226Z,5.30
2023-05-08T10:21:07.976Z,7.65
2023-05-08T10:23:12.821Z,9.07
2023-05-08T10:25:22.341Z,3.25
2023-05-08T10:27:35.011Z,5.15
2023-05-08T10:29:43.510Z,5.28
2023-05-08T10:31:48.003Z,3.88
2023-05-08T10:33:52.401Z,7.43
2023-05-08T10:35:56.126Z,3.88
2023-05-08T10:37:59.884Z,4.03
2023-05-08T10:40:04.076Z,10.07
2023-05-08T10:42:08.784Z,7.55
2023-05-08T10:44:11.854Z,5.97
2023-05-08T10:46:19.556Z,5.63
2023-05-08T10:48:28.044Z,4.40
2023-05-08T10:50:40.713Z,5.53
2023-05-08T10:52:52.775Z,4.10
2023-05-08T10:55:17.646Z,7.60
2023-05-08T10:57:22.038Z,4.53
2023-05-08T10:59:25.068Z,6.68
2023-05-08T11:01:28.271Z,7.93
2023-05-08T11:03:33.235Z,6.40
2023-05-08T11:05:47.376Z,6.15
2023-05-08T11:07:57.422Z,5.47
2023-05-08T11:10:08.866Z,5.70
2023-05-08T11:12:24.700Z,4.97
2023-05-08T11:14:28.962Z,6.03
2023-05-08T11:17:05.037Z,18.38
2023-05-08T11:19:17.579Z,12.63
2023-05-08T11:21:22.278Z,10.55
2023-05-08T11:23:26.960Z,5.78
2023-05-08T11:25:43.572Z,7.30
2023-05-08T11:28:17.589Z,6.43
2023-05-08T11:30:23.956Z,4.50
2023-05-08T11:32:56.829Z,4.60
2023-05-08T11:34:59.849Z,5.65
2023-05-08T11:37:03.024Z,4.15
2023-05-08T11:39:12.944Z,6.57
2023-05-08T11:41:23.059Z,4.25
2023-05-08T11:44:00.842Z,18.05
2023-05-08T11:46:05.041Z,3.85
2023-05-08T11:48:08.216Z,3.80
2023-05-08T11:50:13.181Z,4.57
2023-05-08T11:52:20.929Z,3.97
2023-05-08T11:54:24.837Z,3.28
2023-05-08T11:56:27.732Z,6.03
2023-05-08T11:58:32.091Z,3.90
2023-05-08T12:00:35.413Z,3.00
2023-05-08T12:02:39.120Z,4.15
2023-05-08T12:04:46.936Z,5.13
2023-05-08T12:06:51.429Z,6.30
2023-05-08T12:08:54.496Z,3.90
2023-05-08T12:10:59.021Z,7.80
2023-05-08T12:13:02.020Z,5.90
2023-05-08T12:15:10.359Z,5.75
2023-05-08T12:17:18.129Z,4.20
2023-05-08T12:19:21.417Z,4.97
2023-05-08T12:21:24.953Z,5.82
2023-05-08T12:23:29.325Z,8.02
2023-05-08T12:25:32.407Z,4.22
2023-05-08T12:27:35.522Z,4.35
2023-05-08T12:29:38.893Z,3.92
2023-05-08T12:31:43.483Z,3.75
2023-05-08T12:33:46.923Z,8.00
2023-05-08T12:35:50.208Z,4.63
2023-05-08T12:37:53.515Z,3.53
2023-05-08T12:39:56.972Z,8.85
2023-05-08T12:42:01.297Z,3.75
2023-05-08T12:44:04.308Z,4.28
2023-05-08T12:46:07.308Z,6.78
2023-05-08T12:48:12.913Z,3.40
2023-05-08T12:50:16.734Z,6.68
2023-05-08T12:52:20.016Z,7.88
2023-05-08T12:54:34.565Z,3.63
2023-05-08T12:56:43.781Z,3.50
2023-05-08T12:58:46.854Z,7.50
2023-05-08T13:00:51.834Z,7.30
2023-05-08T13:02:55.419Z,5.13
2023-05-08T13:05:03.532Z,4.28
2023-05-08T13:07:06.502Z,6.43
2023-05-08T13:09:09.512Z,3.50
2023-05-08T13:11:13.225Z,4.20
2023-05-08T13:13:17.415Z,3.40
2023-05-08T13:15:21.206Z,5.03
2023-05-08T13:17:25.664Z,4.22
2023-05-08T13:19:28.648Z,3.70
2023-05-08T13:21:33.089Z,4.95
2023-05-08T13:23:37.352Z,6.22
2023-05-08T13:25:41.762Z,5.53
2023-05-08T13:27:44.972Z,6.13
2023-05-08T13:29:48.137Z,4.80
2023-05-08T13:31:51.355Z,6.32
2023-05-08T13:33:54.540Z,4.95
2023-05-08T13:35:57.397Z,4.10
2023-05-08T13:38:02.509Z,4.75
2023-05-08T13:40:06.485Z,7.60
2023-05-08T13:42:09.494Z,5.03
2023-05-08T13:44:13.398Z,4.68
2023-05-08T13:46:16.724Z,6.78
2023-05-08T13:48:19.647Z,4.35
2023-05-08T13:50:22.968Z,4.95
2023-05-08T13:52:26.358Z,5.15
2023-05-08T13:54:30.826Z,7.30
2023-05-08T13:56:34.391Z,5.03
2023-05-08T13:58:37.713Z,4.90
2023-05-08T14:00:40.820Z,17.05
2023-05-08T14:02:43.900Z,7.10
2023-05-08T14:04:47.588Z,8.30
2023-05-08T14:06:51.834Z,10.13
2023-05-08T14:08:56.903Z,15.48
2023-05-08T14:11:02.217Z,5.65
2023-05-08T14:13:07.197Z,6.68
2023-05-08T14:15:12.089Z,4.18
2023-05-08T14:17:15.418Z,4.65
2023-05-08T14:19:18.450Z,8.23
2023-05-08T14:21:21.809Z,6.30
2023-05-08T14:23:25.152Z,7.55
2023-05-08T14:25:28.351Z,9.75
2023-05-08T14:27:35.562Z,12.02
2023-05-08T14:29:38.860Z,7.03
2023-05-08T14:31:42.016Z,9.52
2023-05-08T14:33:45.307Z,14.43
2023-05-08T14:35:48.506Z,20.80
2023-05-08T14:37:51.356Z,21.60
2023-05-08T14:39:56.161Z,6.70
2023-05-08T14:42:20.819Z,6.32
2023-05-08T14:44:24.597Z,5.70
2023-05-08T14:46:28.279Z,6.50
2023-05-08T14:48:31.422Z,8.40
2023-05-08T14:50:34.745Z,6.78
2023-05-08T14:52:38.333Z,7.40
2023-05-08T14:54:41.785Z,7.38
2023-05-08T14:56:47.766Z,10.98
2023-05-08T14:58:51.577Z,6.05
2023-05-08T15:00:56.273Z,7.55
2023-05-08T15:02:59.326Z,6.55
2023-05-08T15:05:07.968Z,9.07
2023-05-08T15:07:11.465Z,5.75
2023-05-08T15:09:16.346Z,7.25
2023-05-08T15:11:19.709Z,5.57
2023-05-08T15:13:22.987Z,7.93
2023-05-08T15:15:25.965Z,7.10
2023-05-08T15:17:31.707Z,6.82
2023-05-08T15:19:34.796Z,6.10
2023-05-08T15:21:37.827Z,9.45
2023-05-08T15:23:40.776Z,5.85
2023-05-08T15:25:43.874Z,7.03
2023-05-08T15:27:52.438Z,6.72
2023-05-08T15:29:55.960Z,11.55
2023-05-08T15:31:59.148Z,6.68
2023-05-08T15:34:03.819Z,5.65
2023-05-08T15:36:07.224Z,6.53
2023-05-08T15:38:11.635Z,5.72
2023-05-08T15:40:15.834Z,5.78
2023-05-08T15:42:18.805Z,5.78
2023-05-08T15:44:22.160Z,5.72
2023-05-08T15:46:25.929Z,5.57
2023-05-08T15:48:29.057Z,6.28
2023-05-08T15:50:33.326Z,6.35
2023-05-08T15:52:36.717Z,8.63
2023-05-08T15:54:39.717Z,5.72
2023-05-08T15:56:42.955Z,7.78
2023-05-08T15:58:46.313Z,6.00
2023-05-08T16:00:49.816Z,6.47
2023-05-08T16:02:52.896Z,4.80
2023-05-08T16:04:55.873Z,7.45
2023-05-08T16:07:00.971Z,5.30
2023-05-08T16:09:04.025Z,5.65
2023-05-08T16:11:07.141Z,5.25
2023-05-08T16:13:10.432Z,13.57
2023-05-08T16:15:15.066Z,5.85
2023-05-08T16:17:18.365Z,6.95
2023-05-08T16:19:21.338Z,5.90
2023-05-08T16:21:26.116Z,6.45
2023-05-08T16:23:30.827Z,6.10
2023-05-08T16:25:34.231Z,4.80
2023-05-08T16:27:37.348Z,5.20
2023-05-08T16:29:40.596Z,5.78
2023-05-08T16:31:43.636Z,6.93
2023-05-08T16:33:49.122Z,13.15
2023-05-08T16:35:52.469Z,7.30
2023-05-08T16:37:55.460Z,8.38
2023-05-08T16:39:59.863Z,5.50
2023-05-08T16:42:03.261Z,5.18
2023-05-08T16:44:06.534Z,6.93
2023-05-08T16:46:09.769Z,7.22
2023-05-08T16:48:12.864Z,5.45
2023-05-08T16:50:16.085Z,6.78
2023-05-08T16:52:19.617Z,9.98
2023-05-08T16:54:22.630Z,10.63
2023-05-08T16:56:27.246Z,7.88
2023-05-08T16:58:30.216Z,6.53
2023-05-08T17:00:33.293Z,7.57
2023-05-08T17:02:36.470Z,13.63
2023-05-08T17:04:39.418Z,6.68
2023-05-08T17:06:42.370Z,6.15
2023-05-08T17:08:46.848Z,5.32
2023-05-08T17:10:50.031Z,6.93
2023-05-08T17:12:54.971Z,8.15
2023-05-08T17:14:58.301Z,8.48
2023-05-08T17:17:01.441Z,13.13
2023-05-08T17:19:04.757Z,7.35
2023-05-08T17:21:07.849Z,9.10
2023-05-08T17:23:12.032Z,6.88
2023-05-08T17:25:16.135Z,9.75
2023-05-08T17:27:19.840Z,9.63
2023-05-08T17:29:27.234Z,9.07
2023-05-08T17:31:32.610Z,6.22
2023-05-08T17:33:35.846Z,5.82
2023-05-08T17:35:39.191Z,8.88
2023-05-08T17:37:42.950Z,9.93
2023-05-08T17:39:46.793Z,12.80
2023-05-08T17:41:51.132Z,9.18
2023-05-08T17:43:55.748Z,8.65
2023-05-08T17:46:01.765Z,6.38
2023-05-08T17:48:04.980Z,5.85
2023-05-08T17:50:11.987Z,8.23
2023-05-08T17:52:17.277Z,6.57
2023-05-08T17:54:23.151Z,5.75
2023-05-08T17:56:26.450Z,6.95
2023-05-08T17:58:30.400Z,7.18
2023-05-08T18:00:37.658Z,8.68
2023-05-08T18:02:44.779Z,7.88
2023-05-08T18:04:49.672Z,6.82
2023-05-08T18:06:53.903Z,8.45
2023-05-08T18:08:57.237Z,8.15
2023-05-08T18:11:01.418Z,11.77
2023-05-08T18:13:04.913Z,8.00
2023-05-08T18:15:08.953Z,10.23
2023-05-08T18:17:15.594Z,12.18
2023-05-08T18:19:20.123Z,8.57
2023-05-08T18:21:25.242Z,11.20
2023-05-08T18:23:28.404Z,9.40
2023-05-08T18:25:31.272Z,11.70
2023-05-08T18:27:35.174Z,9.43
2023-05-08T18:29:38.329Z,10.68
2023-05-08T18:31:42.277Z,8.35
2023-05-08T18:33:45.902Z,7.90
2023-05-08T18:35:52.005Z,9.00
2023-05-08T18:37:55.373Z,10.88
2023-05-08T18:39:58.308Z,10.20
2023-05-08T18:42:02.046Z,10.65
2023-05-08T18:44:06.643Z,9.57
2023-05-08T18:46:16.233Z,10.90
2023-05-08T18:48:19.439Z,8.73
2023-05-08T18:50:22.515Z,10.55
2023-05-08T18:52:29.956Z,12.50
2023-05-08T18:54:36.063Z,9.60
2023-05-08T18:56:39.861Z,9.32
2023-05-08T18:58:42.988Z,9.25
2023-05-08T19:00:46.118Z,8.52
2023-05-08T19:02:50.101Z,12.35
2023-05-08T19:04:53.401Z,12.15
2023-05-08T19:06:57.204Z,9.63
2023-05-08T19:09:01.948Z,8.55
2023-05-08T19:11:05.650Z,13.75
2023-05-08T19:13:09.531Z,13.07
2023-05-08T19:15:14.371Z,16.67
2023-05-08T19:17:18.014Z,16.77
2023-05-08T19:19:21.842Z,10.38
2023-05-08T19:21:25.128Z,8.88
2023-05-08T19:23:28.246Z,17.45
2023-05-08T19:25:33.390Z,7.90
2023-05-08T19:27:37.291Z,8.90
2023-05-08T19:29:40.963Z,18.48
2023-05-08T19:31:44.730Z,21.58
2023-05-08T19:33:50.442Z,11.30
2023-05-08T19:35:53.502Z,10.48
2023-05-08T19:37:57.063Z,13.85
2023-05-08T19:40:00.380Z,22.85
2023-05-08T19:42:07.597Z,13.73
2023-05-08T19:44:11.060Z,14.63
2023-05-08T19:46:14.382Z,13.40
2023-05-08T19:48:19.593Z,8.63
2023-05-08T19:50:24.405Z,17.92
2023-05-08T19:52:27.650Z,18.45
2023-05-08T19:54:31.075Z,13.77
2023-05-08T19:56:34.471Z,14.68
2023-05-08T19:58:38.800Z,12.40
2023-05-08T20:00:41.852Z,9.77
2023-05-08T20:02:45.205Z,17.67
2023-05-08T20:05:14.478Z,8.77
2023-05-08T20:07:11.481Z,9.07
2023-05-08T20:09:14.894Z,8.88
2023-05-08T20:11:18.219Z,12.32
2023-05-08T20:13:21.839Z,17.73
2023-05-08T20:15:28.699Z,10.98
2023-05-08T20:17:31.987Z,10.25
2023-05-08T20:19:38.327Z,17.35
2023-05-08T20:21:41.643Z,9.68
2023-05-08T20:23:46.108Z,9.30
2023-05-08T20:25:49.474Z,8.70
2023-05-08T20:27:53.134Z,10.75
2023-05-08T20:29:56.380Z,8.50
2023-05-08T20:32:02.345Z,8.45
2023-05-08T20:34:06.118Z,9.75
2023-05-08T20:36:10.640Z,9.20
2023-05-08T20:38:14.853Z,12.45
2023-05-08T20:40:17.808Z,17.48
2023-05-08T20:42:25.853Z,17.10
2023-05-08T20:44:29.385Z,14.65
2023-05-08T20:46:32.455Z,19.73
2023-05-08T20:48:36.717Z,14.57
2023-05-08T20:50:39.768Z,12.98
2023-05-08T20:52:43.116Z,15.05
2023-05-08T20:54:48.004Z,10.27
2023-05-08T20:56:50.978Z,15.18
2023-05-08T20:58:54.283Z,17.55
2023-05-08T21:00:57.688Z,10.25
2023-05-08T21:03:02.198Z,14.18
2023-05-08T21:05:10.337Z,8.75
2023-05-08T21:07:13.634Z,9.98
2023-05-08T21:09:17.613Z,11.20
2023-05-08T21:11:24.702Z,12.88
2023-05-08T21:13:28.089Z,8.95
2023-05-08T21:15:32.395Z,6.93
2023-05-08T21:17:36.286Z,8.15
2023-05-08T21:19:39.797Z,6.30
2023-05-08T21:21:46.952Z,7.38
2023-05-08T21:23:50.364Z,8.55
2023-05-08T21:25:55.242Z,8.23
2023-05-08T21:27:59.226Z,7.10
2023-05-08T21:30:02.310Z,5.43
2023-05-08T21:32:07.003Z,9.38
2023-05-08T21:34:11.417Z,5.47
2023-05-08T21:36:14.941Z,7.25
2023-05-08T21:38:20.312Z,6.60
2023-05-08T21:40:24.086Z,15.68
2023-05-08T21:42:28.078Z,8.15
2023-05-08T21:44:39.744Z,5.85
2023-05-08T21:46:43.134Z,4.63
2023-05-08T21:48:46.296Z,8.02
2023-05-08T21:50:49.276Z,6.30
2023-05-08T21:52:55.970Z,6.40
2023-05-08T21:55:01.594Z,15.18
2023-05-08T21:57:06.536Z,7.65
2023-05-08T21:59:09.870Z,11.38
2023-05-08T22:01:12.836Z,7.20
2023-05-08T22:03:15.973Z,5.47
2023-05-08T22:05:19.108Z,7.72
2023-05-08T22:07:22.641Z,5.05
2023-05-08T22:09:25.783Z,9.23
2023-05-08T22:11:31.601Z,6.25
2023-05-08T22:13:37.482Z,7.38
2023-05-08T22:15:41.167Z,8.85
2023-05-08T22:17:44.200Z,5.10
2023-05-08T22:19:49.924Z,5.10
2023-05-08T22:21:53.424Z,6.50
2023-05-08T22:23:58.986Z,7.60
2023-05-08T22:26:03.248Z,8.73
2023-05-08T22:28:07.906Z,7.57
2023-05-08T22:30:11.833Z,7.78
2023-05-08T22:32:15.401Z,6.32
2023-05-08T22:34:18.705Z,5.80
2023-05-08T22:36:23.992Z,8.15
2023-05-08T22:38:27.016Z,11.50
2023-05-08T22:40:31.355Z,18.60
2023-05-08T22:42:35.730Z,5.68
2023-05-08T22:44:40.642Z,6.28
2023-05-08T22:46:44.121Z,10.55
2023-05-08T22:48:48.596Z,11.60
2023-05-08T22:50:52.686Z,8.45
2023-05-08T22:52:56.743Z,8.00
2023-05-08T22:54:59.805Z,9.07
2023-05-08T22:57:03.955Z,8.73
2023-05-08T22:59:07.491Z,13.23
2023-05-08T23:01:14.704Z,6.03
2023-05-08T23:03:17.916Z,9.10
2023-05-08T23:05:21.121Z,5.97
2023-05-08T23:07:26.755Z,10.50
2023-05-08T23:09:30.867Z,6.05
2023-05-08T23:11:34.629Z,11.40
2023-05-08T23:13:39.119Z,6.32
2023-05-08T23:15:43.141Z,9.57
2023-05-08T23:17:48.411Z,6.93
2023-05-08T23:19:51.840Z,9.48
2023-05-08T23:21:55.024Z,8.25
2023-05-08T23:24:00.239Z,7.10
2023-05-08T23:26:05.450Z,8.35
2023-05-08T23:28:08.400Z,13.82
2023-05-08T23:30:13.251Z,9.52
2023-05-08T23:32:16.445Z,6.97
2023-05-08T23:34:20.726Z,8.80
2023-05-08T23:36:23.862Z,6.90
2023-05-08T23:38:27.149Z,9.73
2023-05-08T23:40:32.291Z,11.07
2023-05-08T23:42:37.139Z,8.30
2023-05-08T23:44:40.738Z,9.73
2023-05-08T23:46:43.949Z,7.68
2023-05-08T23:48:47.005Z,8.27
2023-05-08T23:50:51.343Z,8.60
2023-05-08T23:52:54.356Z,8.45
2023-05-08T23:54:57.432Z,8.60
2023-05-08T23:57:00.372Z,11.07
2023-05-08T23:59:03.528Z,7.30
